createdAt,value
2018-05-03T00:02:10.906Z,99.90
2018-05-03T00:04:38.681Z,99.90
2018-05-03T00:07:06.402Z,99.90
2018-05-03T00:09:34.171Z,99.90
2018-05-03T00:12:01.931Z,99.90
2018-05-03T00:14:29.698Z,99.90
2018-05-03T00:16:57.429Z,99.90
2018-05-03T00:19:25.183Z,99.90
2018-05-03T00:21:52.908Z,99.90
2018-05-03T00:24:20.663Z,99.90
2018-05-03T00:26:48.394Z,99.90
2018-05-03T00:29:16.193Z,99.90
2018-05-03T00:31:43.935Z,99.90
2018-05-03T00:34:11.696Z,99.90
2018-05-03T00:36:39.468Z,99.90
2018-05-03T00:39:07.200Z,99.90
2018-05-03T00:41:34.958Z,99.90
2018-05-03T00:44:02.694Z,99.90
2018-05-03T00:46:30.446Z,99.90
2018-05-03T00:48:58.970Z,99.90
2018-05-03T00:51:26.741Z,99.90
2018-05-03T00:53:54.484Z,99.90
2018-05-03T00:56:22.247Z,99.90
2018-05-03T00:58:49.975Z,99.90
2018-05-03T01:01:18.463Z,99.90
2018-05-03T01:03:46.227Z,99.90
2018-05-03T01:06:13.964Z,99.90
2018-05-03T01:08:42.503Z,99.90
2018-05-03T01:11:10.242Z,99.90
2018-05-03T01:13:38.003Z,99.90
2018-05-03T01:16:05.724Z,99.90
2018-05-03T01:18:33.487Z,99.90
2018-05-03T01:21:01.996Z,99.90
2018-05-03T01:23:29.763Z,99.90
2018-05-03T01:25:57.498Z,99.90
2018-05-03T01:28:26.026Z,99.90
2018-05-03T01:30:53.764Z,99.90
2018-05-03T01:33:21.504Z,99.90
2018-05-03T01:36:01.128Z,99.90
2018-05-03T01:38:28.857Z,99.90
2018-05-03T01:40:56.619Z,99.90
2018-05-03T01:43:24.356Z,99.90
2018-05-03T01:45:52.123Z,99.90
2018-05-03T01:48:19.863Z,99.90
2018-05-03T01:50:47.678Z,99.90
2018-05-03T01:53:15.411Z,99.90
2018-05-03T01:55:43.216Z,99.90
2018-05-03T01:58:10.944Z,99.90
2018-05-03T02:00:38.732Z,99.90
2018-05-03T02:03:06.863Z,99.90
2018-05-03T02:05:34.612Z,99.90
2018-05-03T02:08:02.375Z,99.90
2018-05-03T02:10:30.106Z,99.90
2018-05-03T02:12:58.638Z,99.90
2018-05-03T02:15:26.393Z,99.90
2018-05-03T02:17:54.159Z,99.90
2018-05-03T02:20:21.889Z,99.90
2018-05-03T02:22:49.674Z,99.90
2018-05-03T02:25:17.420Z,99.90
2018-05-03T02:27:45.982Z,99.90
2018-05-03T02:30:13.703Z,99.90
2018-05-03T02:32:41.470Z,99.90
2018-05-03T02:35:09.236Z,99.90
2018-05-03T02:37:36.959Z,99.90
2018-05-03T02:40:04.760Z,99.90
2018-05-03T02:42:32.491Z,99.90
2018-05-03T02:45:00.291Z,99.90
2018-05-03T02:47:28.038Z,99.90
2018-05-03T02:49:55.816Z,99.90
2018-05-03T02:52:24.311Z,99.90
2018-05-03T02:54:52.842Z,99.90
2018-05-03T02:57:32.320Z,99.90
2018-05-03T03:13:56.352Z,99.90
2018-05-03T03:16:41.833Z,99.90
2018-05-03T03:19:27.993Z,99.90
2018-05-03T03:22:13.235Z,99.90
2018-05-03T03:25:06.387Z,99.90
2018-05-03T03:27:52.602Z,99.90
2018-05-03T03:30:38.031Z,99.90
2018-05-03T03:33:17.570Z,99.90
2018-05-03T03:36:05.973Z,99.90
2018-05-03T03:38:45.455Z,99.90
2018-05-03T03:41:25.144Z,99.90
2018-05-03T03:44:04.721Z,99.90
2018-05-03T03:46:33.281Z,99.90
2018-05-03T03:49:01.000Z,99.90
2018-05-03T03:51:29.500Z,99.90
2018-05-03T03:53:57.251Z,99.90
2018-05-03T03:56:25.745Z,99.90
2018-05-03T03:58:53.491Z,99.90
2018-05-03T04:01:21.970Z,99.90
2018-05-03T04:03:49.767Z,99.90
2018-05-03T04:06:17.482Z,99.90
2018-05-03T04:08:46.019Z,99.90
2018-05-03T04:11:13.745Z,99.90
2018-05-03T04:13:41.480Z,99.90
2018-05-03T04:16:09.237Z,99.90
2018-05-03T04:18:48.679Z,99.90
2018-05-03T04:21:29.017Z,99.90
2018-05-03T04:24:09.298Z,99.90
2018-05-03T04:26:37.822Z,99.90
2018-05-03T04:29:05.568Z,99.90
2018-05-03T04:31:33.327Z,99.90
2018-05-03T04:34:01.050Z,99.90
2018-05-03T04:36:29.592Z,99.90
2018-05-03T04:38:57.325Z,99.90
2018-05-03T04:41:25.049Z,99.90
2018-05-03T04:43:52.809Z,99.90
2018-05-03T04:46:20.536Z,99.90
2018-05-03T04:48:48.297Z,99.90
2018-05-03T04:51:16.010Z,99.90
2018-05-03T04:53:44.568Z,99.90
2018-05-03T04:56:12.299Z,99.90
2018-05-03T04:58:40.061Z,99.90
2018-05-03T05:01:07.814Z,99.90
2018-05-03T05:03:35.569Z,99.90
2018-05-03T05:06:03.285Z,99.90
2018-05-03T05:08:31.821Z,99.90
2018-05-03T05:10:59.530Z,99.90
2018-05-03T05:13:28.012Z,99.90
2018-05-03T05:15:56.557Z,99.90
2018-05-03T05:18:24.295Z,99.90
2018-05-03T05:20:52.047Z,99.90
2018-05-03T05:23:19.782Z,99.90
2018-05-03T05:25:48.294Z,99.90
2018-05-03T05:28:16.063Z,99.90
2018-05-03T05:30:43.966Z,99.90
2018-05-03T05:33:12.285Z,99.90
2018-05-03T05:35:40.054Z,95.50
2018-05-03T05:38:07.775Z,92.90
2018-05-03T05:40:36.360Z,66.10
2018-05-03T05:43:04.862Z,68.00
2018-05-03T05:45:32.600Z,68.10
2018-05-03T05:48:01.109Z,77.00
2018-05-03T05:50:28.832Z,77.10
2018-05-03T05:52:56.592Z,80.30
2018-05-03T05:55:24.317Z,85.10
2018-05-03T05:57:52.085Z,76.90
2018-05-03T06:00:20.582Z,61.80
2018-05-03T06:02:48.332Z,61.80
2018-05-03T06:05:16.083Z,68.30
2018-05-03T06:07:43.906Z,69.50
2018-05-03T06:10:11.624Z,64.70
2018-05-03T06:12:39.396Z,67.10
2018-05-03T06:15:07.140Z,66.30
2018-05-03T06:17:34.869Z,64.60
2018-05-03T06:20:02.627Z,59.90
2018-05-03T06:22:30.339Z,56.40
2018-05-03T06:24:58.139Z,57.40
2018-05-03T06:27:25.874Z,55.50
2018-05-03T06:29:53.622Z,44.40
2018-05-03T06:32:22.160Z,31.20
2018-05-03T06:34:49.910Z,31.10
2018-05-03T06:37:17.646Z,28.10
2018-05-03T06:39:45.415Z,25.90
2018-05-03T06:42:13.144Z,23.90
2018-05-03T06:44:40.929Z,23.90
2018-05-03T06:47:09.409Z,21.80
2018-05-03T06:49:37.902Z,20.70
2018-05-03T06:52:06.412Z,20.20
2018-05-03T06:54:34.158Z,20.00
2018-05-03T06:57:01.936Z,19.50
2018-05-03T06:59:29.683Z,18.40
2018-05-03T07:01:57.453Z,18.90
2018-05-03T07:04:25.312Z,17.70
2018-05-03T07:06:53.817Z,16.00
2018-05-03T07:09:21.561Z,16.00
2018-05-03T07:11:49.323Z,16.80
2018-05-03T07:14:17.067Z,17.40
2018-05-03T07:16:44.846Z,17.30
2018-05-03T07:19:12.565Z,17.60
2018-05-03T07:21:41.117Z,17.50
2018-05-03T07:24:08.875Z,17.50
2018-05-03T07:26:36.618Z,16.10
2018-05-03T07:29:04.396Z,16.10
2018-05-03T07:31:32.157Z,16.20
2018-05-03T07:33:59.928Z,16.50
2018-05-03T07:36:27.656Z,16.00
2018-05-03T07:38:55.417Z,16.00
2018-05-03T07:41:23.192Z,15.60
2018-05-03T07:43:50.939Z,14.80
2018-05-03T07:46:18.667Z,14.60
2018-05-03T07:48:46.457Z,14.90
2018-05-03T07:51:14.176Z,13.70
2018-05-03T07:53:41.905Z,13.60
2018-05-03T07:56:09.660Z,13.90
2018-05-03T07:58:38.147Z,13.00
2018-05-03T08:01:05.941Z,13.00
2018-05-03T08:03:33.743Z,14.50
2018-05-03T08:06:01.541Z,14.30
2018-05-03T08:08:29.274Z,14.80
2018-05-03T08:10:57.044Z,16.10
2018-05-03T08:13:24.779Z,16.40
2018-05-03T08:15:52.551Z,15.20
2018-05-03T08:18:20.293Z,14.80
2018-05-03T08:20:48.780Z,13.70
2018-05-03T08:23:16.527Z,13.70
2018-05-03T08:25:44.282Z,14.60
2018-05-03T08:28:12.817Z,14.40
2018-05-03T08:30:40.548Z,14.40
2018-05-03T08:33:08.339Z,14.20
2018-05-03T08:35:36.077Z,14.80
2018-05-03T08:38:03.826Z,14.80
2018-05-03T08:40:31.539Z,14.20
2018-05-03T08:42:59.284Z,14.00
2018-05-03T08:45:27.003Z,14.40
2018-05-03T08:47:54.845Z,13.90
2018-05-03T08:50:23.341Z,13.20
2018-05-03T08:52:51.831Z,13.20
2018-05-03T08:55:19.891Z,13.20
2018-05-03T08:57:48.400Z,12.60
2018-05-03T09:00:16.167Z,12.60
2018-05-03T09:02:43.945Z,12.80
2018-05-03T09:05:11.698Z,11.70
2018-05-03T09:07:39.465Z,11.20
2018-05-03T09:10:07.240Z,11.60
2018-05-03T09:12:34.967Z,11.60
2018-05-03T09:15:02.737Z,11.80
2018-05-03T09:17:30.538Z,12.60
2018-05-03T09:19:58.320Z,13.60
2018-05-03T09:22:26.911Z,14.80
2018-05-03T09:24:54.577Z,15.30
2018-05-03T09:27:22.379Z,18.30
2018-05-03T09:29:50.115Z,20.80
2018-05-03T09:32:17.886Z,23.60
2018-05-03T09:34:47.625Z,27.50
2018-05-03T09:37:15.400Z,27.40
2018-05-03T09:39:43.146Z,30.60
2018-05-03T09:42:10.933Z,31.50
2018-05-03T09:44:39.427Z,33.20
2018-05-03T09:47:07.259Z,33.10
2018-05-03T09:49:34.991Z,32.30
2018-05-03T09:52:02.778Z,32.60
2018-05-03T09:54:30.501Z,33.80
2018-05-03T09:56:58.228Z,35.10
2018-05-03T09:59:26.773Z,36.40
2018-05-03T10:01:55.301Z,35.40
2018-05-03T10:04:23.080Z,35.40
2018-05-03T10:06:50.799Z,36.00
2018-05-03T10:09:19.324Z,35.80
2018-05-03T10:11:47.051Z,35.80
2018-05-03T10:14:15.568Z,33.70
2018-05-03T10:16:43.332Z,33.70
2018-05-03T10:19:11.113Z,33.70
2018-05-03T10:21:38.829Z,33.90
2018-05-03T10:24:06.625Z,35.40
2018-05-03T10:26:34.352Z,35.30
2018-05-03T10:29:02.067Z,34.70
2018-05-03T10:31:29.820Z,36.50
2018-05-03T10:33:57.548Z,36.40
2018-05-03T10:36:25.303Z,36.90
2018-05-03T10:38:53.033Z,37.90
2018-05-03T10:41:20.780Z,37.00
2018-05-03T10:43:48.519Z,37.60
2018-05-03T10:46:16.275Z,37.30
2018-05-03T10:48:44.023Z,38.60
2018-05-03T10:51:11.818Z,37.90
2018-05-03T10:53:39.537Z,37.60
2018-05-03T10:56:07.326Z,37.60
2018-05-03T10:58:35.042Z,37.80
2018-05-03T11:01:03.534Z,38.80
2018-05-03T11:03:31.279Z,38.80
2018-05-03T11:05:59.774Z,36.40
2018-05-03T11:08:27.561Z,36.30
2018-05-03T11:10:55.284Z,36.60
2018-05-03T11:13:23.805Z,38.10
2018-05-03T11:15:51.527Z,38.30
2018-05-03T11:18:19.280Z,39.70
2018-05-03T11:20:47.764Z,40.50
2018-05-03T11:23:16.278Z,38.90
2018-05-03T11:25:44.020Z,38.90
2018-05-03T11:28:11.736Z,37.80
2018-05-03T11:30:39.488Z,36.10
2018-05-03T11:33:07.206Z,35.70
2018-05-03T11:35:34.968Z,36.40
2018-05-03T11:38:02.691Z,35.40
2018-05-03T11:40:30.459Z,35.20
2018-05-03T11:42:58.175Z,34.20
2018-05-03T11:45:25.939Z,31.90
2018-05-03T11:47:53.651Z,30.50
2018-05-03T11:50:22.162Z,30.70
2018-05-03T11:52:49.876Z,30.60
2018-05-03T11:55:17.647Z,30.30
2018-05-03T11:57:45.383Z,31.70
2018-05-03T12:00:13.116Z,33.30
2018-05-03T12:02:40.861Z,34.40
2018-05-03T12:05:08.572Z,33.70
2018-05-03T12:07:36.317Z,34.00
2018-05-03T12:10:04.036Z,33.30
2018-05-03T12:12:31.820Z,33.40
2018-05-03T12:14:59.526Z,31.60
2018-05-03T12:17:27.278Z,32.20
2018-05-03T12:19:55.009Z,32.70
2018-05-03T12:22:22.761Z,33.00
2018-05-03T12:24:50.495Z,33.30
2018-05-03T12:27:18.986Z,32.90
2018-05-03T12:29:46.747Z,32.20
2018-05-03T12:32:14.504Z,32.10
2018-05-03T12:34:42.254Z,32.50
2018-05-03T12:37:10.760Z,35.10
2018-05-03T12:39:38.528Z,35.10
2018-05-03T12:42:06.256Z,35.50
2018-05-03T12:44:34.048Z,36.40
2018-05-03T12:47:01.778Z,34.50
2018-05-03T12:49:30.311Z,33.40
2018-05-03T12:51:58.034Z,33.30
2018-05-03T12:54:25.822Z,31.80
2018-05-03T12:56:54.366Z,33.90
2018-05-03T12:59:22.116Z,33.80
2018-05-03T13:01:50.657Z,33.70
2018-05-03T13:04:18.378Z,33.70
2018-05-03T13:06:46.157Z,34.50
2018-05-03T13:09:13.891Z,35.00
2018-05-03T13:11:42.403Z,34.50
2018-05-03T13:14:10.208Z,34.50
2018-05-03T13:16:37.931Z,33.30
2018-05-03T13:19:05.644Z,34.30
2018-05-03T13:21:34.155Z,37.40
2018-05-03T13:24:01.881Z,37.50
2018-05-03T13:26:30.434Z,37.30
2018-05-03T13:28:58.154Z,37.20
2018-05-03T13:31:25.898Z,38.50
2018-05-03T13:33:54.429Z,39.50
2018-05-03T13:36:22.150Z,39.60
2018-05-03T13:38:49.940Z,39.70
2018-05-03T13:41:17.698Z,40.20
2018-05-03T13:43:45.468Z,40.80
2018-05-03T13:46:13.186Z,41.60
2018-05-03T13:48:41.716Z,42.00
2018-05-03T13:51:09.447Z,42.00
2018-05-03T13:53:37.217Z,44.00
2018-05-03T13:56:04.945Z,47.80
2018-05-03T13:58:33.492Z,52.30
2018-05-03T14:01:01.223Z,52.20
2018-05-03T14:03:28.946Z,52.70
2018-05-03T14:05:56.697Z,51.60
2018-05-03T14:08:24.430Z,50.80
2018-05-03T14:10:52.189Z,50.20
2018-05-03T14:13:19.911Z,51.90
2018-05-03T14:15:47.666Z,51.90
2018-05-03T14:18:15.377Z,51.20
2018-05-03T14:20:43.201Z,50.60
2018-05-03T14:23:10.923Z,50.10
2018-05-03T14:25:38.704Z,48.90
2018-05-03T14:28:07.196Z,49.20
2018-05-03T14:30:34.929Z,49.20
2018-05-03T14:33:02.695Z,48.30
2018-05-03T14:35:31.202Z,52.00
2018-05-03T14:37:58.958Z,52.00
2018-05-03T14:40:26.675Z,54.10
2018-05-03T14:42:54.415Z,54.80
2018-05-03T14:45:22.153Z,55.10
2018-05-03T14:47:49.903Z,58.40
2018-05-03T14:50:17.634Z,62.60
2018-05-03T14:52:46.161Z,62.60
2018-05-03T14:55:13.933Z,62.60
2018-05-03T14:57:41.709Z,62.30
2018-05-03T15:00:09.477Z,64.20
2018-05-03T15:02:37.971Z,65.70
2018-05-03T15:05:05.720Z,66.20
2018-05-03T15:07:33.447Z,65.80
2018-05-03T15:10:01.197Z,67.40
2018-05-03T15:12:28.910Z,65.50
2018-05-03T15:14:56.659Z,65.20
2018-05-03T15:17:24.384Z,65.90
2018-05-03T15:19:52.143Z,65.50
2018-05-03T15:22:19.858Z,65.00
2018-05-03T15:24:47.617Z,66.40
2018-05-03T15:27:15.335Z,67.40
2018-05-03T15:29:43.153Z,69.10
2018-05-03T15:32:10.859Z,73.70
2018-05-03T15:34:38.603Z,76.50
2018-05-03T15:37:06.361Z,79.50
2018-05-03T15:39:34.833Z,86.30
2018-05-03T15:42:03.350Z,86.80
2018-05-03T15:44:31.063Z,86.80
2018-05-03T15:46:59.588Z,91.60
2018-05-03T15:49:27.295Z,91.60
2018-05-03T15:51:55.032Z,93.90
2018-05-03T15:54:22.742Z,95.20
2018-05-03T15:56:51.251Z,98.70
2018-05-03T15:59:18.959Z,98.70
2018-05-03T16:01:46.732Z,98.70
2018-05-03T16:04:15.209Z,99.90
2018-05-03T16:06:43.723Z,98.30
2018-05-03T16:09:11.479Z,98.40
2018-05-03T16:11:39.205Z,98.60
2018-05-03T16:14:07.717Z,99.90
2018-05-03T16:16:35.447Z,99.90
2018-05-03T16:19:03.981Z,99.90
2018-05-03T16:21:31.715Z,99.90
2018-05-03T16:23:59.482Z,99.90
2018-05-03T16:26:27.197Z,99.90
2018-05-03T16:28:55.771Z,99.90
2018-05-03T16:31:23.518Z,99.90
2018-05-03T16:33:51.244Z,99.90
2018-05-03T16:36:19.023Z,99.90
2018-05-03T16:38:46.764Z,99.90
2018-05-03T16:41:14.529Z,99.90
2018-05-03T16:43:42.243Z,99.90
2018-05-03T16:46:10.016Z,99.90
2018-05-03T16:48:37.770Z,99.90
2018-05-03T16:51:05.528Z,99.90
2018-05-03T16:53:33.246Z,99.90
2018-05-03T16:56:00.991Z,99.90
2018-05-03T16:58:28.717Z,99.90
2018-05-03T17:00:56.559Z,99.90
2018-05-03T17:03:24.331Z,99.90
2018-05-03T17:05:52.060Z,99.90
2018-05-03T17:08:21.342Z,99.90
2018-05-03T17:10:49.090Z,99.90
2018-05-03T17:13:16.848Z,99.90
2018-05-03T17:15:45.333Z,99.90
2018-05-03T17:18:13.856Z,99.90
2018-05-03T17:20:41.589Z,99.90
2018-05-03T17:23:09.329Z,99.90
2018-05-03T17:25:37.814Z,99.90
2018-05-03T17:28:05.582Z,99.90
2018-05-03T17:30:33.302Z,99.90
2018-05-03T17:33:01.090Z,99.90
2018-05-03T17:35:29.746Z,99.90
2018-05-03T17:37:57.524Z,99.90
2018-05-03T17:40:26.069Z,99.90
2018-05-03T17:42:53.800Z,99.90
2018-05-03T17:45:21.551Z,99.90
2018-05-03T17:47:49.291Z,99.90
2018-05-03T17:50:17.814Z,99.90
2018-05-03T17:52:45.527Z,99.90
2018-05-03T17:55:14.064Z,99.90
2018-05-03T17:57:41.805Z,99.90
2018-05-03T18:00:09.715Z,99.90
2018-05-03T18:02:37.450Z,99.90
2018-05-03T18:05:05.258Z,99.90
2018-05-03T18:07:33.007Z,99.90
2018-05-03T18:10:00.745Z,99.90
2018-05-03T18:12:28.495Z,99.90
2018-05-03T18:14:56.206Z,99.90
2018-05-03T18:17:24.718Z,99.90
2018-05-03T18:19:52.436Z,99.90
2018-05-03T18:22:20.805Z,99.90
2018-05-03T18:24:48.566Z,99.90
2018-05-03T18:27:16.321Z,99.90
2018-05-03T18:29:44.757Z,99.90
2018-05-03T18:32:12.813Z,99.90
2018-05-03T18:34:40.555Z,99.90
2018-05-03T18:37:09.152Z,99.90
2018-05-03T18:39:36.871Z,99.90
2018-05-03T18:42:04.597Z,99.90
2018-05-03T18:44:32.369Z,99.90
2018-05-03T18:47:00.087Z,99.90
2018-05-03T18:49:28.631Z,99.90
2018-05-03T18:51:56.410Z,99.90
2018-05-03T18:54:24.216Z,99.90
2018-05-03T18:56:51.945Z,99.90
2018-05-03T18:59:20.462Z,99.90
2018-05-03T19:01:48.190Z,99.90
2018-05-03T19:04:16.740Z,99.90
2018-05-03T19:06:44.535Z,99.90
2018-05-03T19:09:12.439Z,99.90
2018-05-03T19:11:40.211Z,99.90
2018-05-03T19:14:08.003Z,99.90
2018-05-03T19:16:35.942Z,99.90
2018-05-03T19:19:03.716Z,99.90
2018-05-03T19:21:31.639Z,99.90
2018-05-03T19:23:59.374Z,99.90
2018-05-03T19:26:27.128Z,99.90
2018-05-03T19:28:54.973Z,99.90
2018-05-03T19:31:22.735Z,99.90
2018-05-03T19:33:50.450Z,99.90
2018-05-03T19:36:33.082Z,99.90
2018-05-03T19:39:13.960Z,99.90
2018-05-03T19:41:42.307Z,99.90
2018-05-03T19:44:10.038Z,99.90
2018-05-03T19:46:38.527Z,99.90
2018-05-03T19:49:06.319Z,99.90
2018-05-03T19:51:34.050Z,99.90
2018-05-03T19:54:02.664Z,99.90
2018-05-03T19:56:30.380Z,99.90
2018-05-03T19:58:58.898Z,99.90
2018-05-03T20:01:26.698Z,99.90
2018-05-03T20:03:54.449Z,99.90
2018-05-03T20:06:22.285Z,99.90
2018-05-03T20:08:50.130Z,99.90
2018-05-03T20:11:17.859Z,99.90
2018-05-03T20:13:45.595Z,99.90
2018-05-03T20:16:13.364Z,99.90
2018-05-03T20:18:41.088Z,99.90
2018-05-03T20:21:08.836Z,99.90
2018-05-03T20:23:37.333Z,99.90
2018-05-03T20:26:05.099Z,99.90
2018-05-03T20:28:32.830Z,99.90
2018-05-03T20:31:01.368Z,99.90
2018-05-03T20:33:29.859Z,99.90
2018-05-03T20:35:57.618Z,99.90
2018-05-03T20:38:25.342Z,99.90
2018-05-03T20:40:53.109Z,99.90
2018-05-03T20:43:20.825Z,99.90
2018-05-03T20:45:49.410Z,99.90
2018-05-03T20:48:17.137Z,99.90
2018-05-03T20:50:44.887Z,99.90
2018-05-03T20:53:12.743Z,99.90
2018-05-03T20:55:40.455Z,99.90
2018-05-03T20:58:09.015Z,99.90
2018-05-03T21:00:36.873Z,99.90
2018-05-03T21:03:04.623Z,99.90
2018-05-03T21:05:32.354Z,99.90
2018-05-03T21:08:00.158Z,99.90
2018-05-03T21:10:27.911Z,99.90
2018-05-03T21:12:55.658Z,99.90
2018-05-03T21:15:23.443Z,99.90
2018-05-03T21:17:51.167Z,99.90
2018-05-03T21:20:18.919Z,99.90
2018-05-03T21:22:46.638Z,99.90
2018-05-03T21:25:15.266Z,99.90
2018-05-03T21:27:43.026Z,99.90
2018-05-03T21:30:10.782Z,99.90
2018-05-03T21:32:38.599Z,99.90
2018-05-03T21:35:07.370Z,99.90
2018-05-03T21:37:36.069Z,99.90
2018-05-03T21:40:04.082Z,99.90
2018-05-03T21:42:31.830Z,99.90
2018-05-03T21:45:00.339Z,99.90
2018-05-03T21:47:28.093Z,99.90
2018-05-03T21:49:55.839Z,99.90
2018-05-03T21:52:23.650Z,99.90
2018-05-03T21:54:51.473Z,99.90
2018-05-03T21:57:19.360Z,99.90
2018-05-03T21:59:47.103Z,99.90
2018-05-03T22:02:14.896Z,99.90
2018-05-03T22:04:42.798Z,99.90
2018-05-03T22:07:11.340Z,99.90
2018-05-03T22:09:39.824Z,99.90
2018-05-03T22:12:07.562Z,99.90
2018-05-03T22:14:35.307Z,99.90
2018-05-03T22:17:03.028Z,99.90
2018-05-03T22:19:30.791Z,99.90
2018-05-03T22:21:59.306Z,99.90
2018-05-03T22:24:27.070Z,99.90
2018-05-03T22:26:54.785Z,99.90
2018-05-03T22:29:22.553Z,99.90
2018-05-03T22:31:50.288Z,99.90
2018-05-03T22:34:18.049Z,99.90
2018-05-03T22:36:45.795Z,99.90
2018-05-03T22:39:13.567Z,99.90
2018-05-03T22:41:41.306Z,99.90
2018-05-03T22:44:09.042Z,99.90
2018-05-03T22:46:37.565Z,99.10
2018-05-03T22:49:05.288Z,99.10
2018-05-03T22:51:33.795Z,97.50
2018-05-03T22:54:01.526Z,97.50
2018-05-03T22:56:30.091Z,95.60
2018-05-03T22:58:57.824Z,95.50
2018-05-03T23:01:25.574Z,94.90
2018-05-03T23:03:53.291Z,96.20
2018-05-03T23:06:21.044Z,98.50
2018-05-03T23:08:48.791Z,99.60
2018-05-03T23:11:16.524Z,98.60
2018-05-03T23:13:44.289Z,98.40
2018-05-03T23:16:12.077Z,97.00
2018-05-03T23:18:39.833Z,94.70
2018-05-03T23:21:07.571Z,94.60
2018-05-03T23:23:35.394Z,94.30
2018-05-03T23:26:03.128Z,94.90
2018-05-03T23:28:31.684Z,95.60
2018-05-03T23:30:59.428Z,95.50
2018-05-03T23:33:27.189Z,95.00
2018-05-03T23:35:54.911Z,94.60
2018-05-03T23:38:23.447Z,95.70
2018-05-03T23:40:51.926Z,97.60
2018-05-03T23:43:19.651Z,97.80
2018-05-03T23:45:47.401Z,99.60
2018-05-03T23:48:15.218Z,99.90
2018-05-03T23:50:42.945Z,99.90
2018-05-03T23:53:10.680Z,99.90
2018-05-03T23:55:38.455Z,99.90
2018-05-03T23:58:06.177Z,99.90
